sensor_id;sensor_type;location;lat;lon;timestamp;P1;durP1;ratioP1;P2;durP2;ratioP2
22470;SDS011;11402;51.374;6.594;2023-05-07T00:01:43;8.57;;;5.65;;
22470;SDS011;11402;51.374;6.594;2023-05-07T00:04:08;8.55;;;5.75;;
22470;SDS011;11402;51.374;6.594;2023-05-07T00:06:34;7.53;;;5.90;;
22470;SDS011;11402;51.374;6.594;2023-05-07T00:09:00;8.88;;;5.50;;
22470;SDS011;11402;51.374;6.594;2023-05-07T00:11:26;7.15;;;5.90;;
22470;SDS011;11402;51.374;6.594;2023-05-07T00:13:53;6.63;;;5.68;;
22470;SDS011;11402;51.374;6.594;2023-05-07T00:16:18;8.70;;;5.88;;
22470;SDS011;11402;51.374;6.594;2023-05-07T00:18:44;6.85;;;5.80;;
22470;SDS011;11402;51.374;6.594;2023-05-07T00:21:10;7.82;;;5.80;;
22470;SDS011;11402;51.374;6.594;2023-05-07T00:23:36;7.78;;;5.70;;
22470;SDS011;11402;51.374;6.594;2023-05-07T00:26:01;9.55;;;5.13;;
22470;SDS011;11402;51.374;6.594;2023-05-07T00:28:27;7.05;;;5.60;;
22470;SDS011;11402;51.374;6.594;2023-05-07T00:30:53;6.28;;;5.60;;
22470;SDS011;11402;51.374;6.594;2023-05-07T00:33:18;8.30;;;5.82;;
22470;SDS011;11402;51.374;6.594;2023-05-07T00:35:45;7.22;;;5.50;;
22470;SDS011;11402;51.374;6.594;2023-05-07T00:38:12;7.78;;;5.35;;
22470;SDS011;11402;51.374;6.594;2023-05-07T00:40:37;7.78;;;5.70;;
22470;SDS011;11402;51.374;6.594;2023-05-07T00:43:03;10.23;;;5.60;;
22470;SDS011;11402;51.374;6.594;2023-05-07T00:45:28;9.13;;;5.30;;
22470;SDS011;11402;51.374;6.594;2023-05-07T00:47:58;7.10;;;5.47;;
22470;SDS011;11402;51.374;6.594;2023-05-07T00:50:29;6.05;;;5.45;;
22470;SDS011;11402;51.374;6.594;2023-05-07T00:52:55;7.93;;;5.95;;
22470;SDS011;11402;51.374;6.594;2023-05-07T00:55:22;8.35;;;5.60;;
22470;SDS011;11402;51.374;6.594;2023-05-07T00:57:48;8.52;;;5.70;;
22470;SDS011;11402;51.374;6.594;2023-05-07T01:00:15;7.65;;;5.57;;
22470;SDS011;11402;51.374;6.594;2023-05-07T01:02:41;7.55;;;5.43;;
22470;SDS011;11402;51.374;6.594;2023-05-07T01:05:08;9.63;;;5.55;;
22470;SDS011;11402;51.374;6.594;2023-05-07T01:07:36;9.85;;;5.70;;
22470;SDS011;11402;51.374;6.594;2023-05-07T01:10:04;7.68;;;5.38;;
22470;SDS011;11402;51.374;6.594;2023-05-07T01:12:31;7.53;;;5.53;;
22470;SDS011;11402;51.374;6.594;2023-05-07T01:14:57;7.50;;;5.03;;
22470;SDS011;11402;51.374;6.594;2023-05-07T01:17:23;8.43;;;5.25;;
22470;SDS011;11402;51.374;6.594;2023-05-07T01:19:49;6.60;;;5.55;;
22470;SDS011;11402;51.374;6.594;2023-05-07T01:22:15;9.02;;;5.90;;
22470;SDS011;11402;51.374;6.594;2023-05-07T01:24:46;8.77;;;5.68;;
22470;SDS011;11402;51.374;6.594;2023-05-07T01:27:12;7.43;;;6.03;;
22470;SDS011;11402;51.374;6.594;2023-05-07T01:29:38;10.02;;;6.18;;
22470;SDS011;11402;51.374;6.594;2023-05-07T01:32:03;7.65;;;5.43;;
22470;SDS011;11402;51.374;6.594;2023-05-07T01:34:31;10.02;;;5.68;;
22470;SDS011;11402;51.374;6.594;2023-05-07T01:36:59;8.43;;;5.35;;
22470;SDS011;11402;51.374;6.594;2023-05-07T01:39:26;6.45;;;5.22;;
22470;SDS011;11402;51.374;6.594;2023-05-07T01:41:56;7.72;;;5.97;;
22470;SDS011;11402;51.374;6.594;2023-05-07T01:44:22;8.40;;;5.55;;
22470;SDS011;11402;51.374;6.594;2023-05-07T01:46:48;7.38;;;5.43;;
22470;SDS011;11402;51.374;6.594;2023-05-07T01:49:15;7.80;;;5.25;;
22470;SDS011;11402;51.374;6.594;2023-05-07T01:51:41;6.10;;;5.50;;
22470;SDS011;11402;51.374;6.594;2023-05-07T01:54:08;7.47;;;5.70;;
22470;SDS011;11402;51.374;6.594;2023-05-07T01:56:34;7.28;;;5.97;;
22470;SDS011;11402;51.374;6.594;2023-05-07T01:59:00;11.60;;;5.95;;
22470;SDS011;11402;51.374;6.594;2023-05-07T02:01:25;6.82;;;6.00;;
22470;SDS011;11402;51.374;6.594;2023-05-07T02:03:51;12.18;;;5.88;;
22470;SDS011;11402;51.374;6.594;2023-05-07T02:06:16;12.55;;;6.60;;
22470;SDS011;11402;51.374;6.594;2023-05-07T02:08:42;10.13;;;6.55;;
22470;SDS011;11402;51.374;6.594;2023-05-07T02:11:08;8.63;;;6.10;;
22470;SDS011;11402;51.374;6.594;2023-05-07T02:13:33;9.80;;;6.40;;
22470;SDS011;11402;51.374;6.594;2023-05-07T02:15:59;7.72;;;5.97;;
22470;SDS011;11402;51.374;6.594;2023-05-07T02:18:25;10.25;;;6.05;;
22470;SDS011;11402;51.374;6.594;2023-05-07T02:20:51;7.60;;;6.15;;
22470;SDS011;11402;51.374;6.594;2023-05-07T02:23:17;7.03;;;6.10;;
22470;SDS011;11402;51.374;6.594;2023-05-07T02:25:42;6.60;;;5.97;;
22470;SDS011;11402;51.374;6.594;2023-05-07T02:28:08;9.15;;;6.13;;
22470;SDS011;11402;51.374;6.594;2023-05-07T02:30:34;7.63;;;6.18;;
22470;SDS011;11402;51.374;6.594;2023-05-07T02:33:01;7.85;;;6.43;;
22470;SDS011;11402;51.374;6.594;2023-05-07T02:35:27;8.02;;;6.32;;
22470;SDS011;11402;51.374;6.594;2023-05-07T02:37:52;7.80;;;6.35;;
22470;SDS011;11402;51.374;6.594;2023-05-07T02:40:18;10.52;;;5.97;;
22470;SDS011;11402;51.374;6.594;2023-05-07T02:42:43;7.10;;;6.18;;
22470;SDS011;11402;51.374;6.594;2023-05-07T02:45:09;10.77;;;7.07;;
22470;SDS011;11402;51.374;6.594;2023-05-07T02:47:35;7.63;;;6.78;;
22470;SDS011;11402;51.374;6.594;2023-05-07T02:50:01;8.68;;;6.93;;
22470;SDS011;11402;51.374;6.594;2023-05-07T02:52:27;7.35;;;6.40;;
22470;SDS011;11402;51.374;6.594;2023-05-07T02:54:52;8.05;;;6.30;;
22470;SDS011;11402;51.374;6.594;2023-05-07T02:57:18;8.40;;;6.30;;
22470;SDS011;11402;51.374;6.594;2023-05-07T02:59:43;7.13;;;6.40;;
22470;SDS011;11402;51.374;6.594;2023-05-07T03:02:09;9.43;;;6.00;;
22470;SDS011;11402;51.374;6.594;2023-05-07T03:04:35;9.00;;;6.20;;
22470;SDS011;11402;51.374;6.594;2023-05-07T03:07:01;9.43;;;5.93;;
22470;SDS011;11402;51.374;6.594;2023-05-07T03:09:26;6.97;;;6.28;;
22470;SDS011;11402;51.374;6.594;2023-05-07T03:11:52;6.85;;;5.97;;
22470;SDS011;11402;51.374;6.594;2023-05-07T03:14:17;7.03;;;5.97;;
22470;SDS011;11402;51.374;6.594;2023-05-07T03:16:43;6.75;;;5.90;;
22470;SDS011;11402;51.374;6.594;2023-05-07T03:19:08;7.30;;;5.60;;
22470;SDS011;11402;51.374;6.594;2023-05-07T03:21:34;6.60;;;5.78;;
22470;SDS011;11402;51.374;6.594;2023-05-07T03:24:00;6.65;;;5.90;;
22470;SDS011;11402;51.374;6.594;2023-05-07T03:26:25;7.78;;;5.95;;
22470;SDS011;11402;51.374;6.594;2023-05-07T03:28:51;10.18;;;6.63;;
22470;SDS011;11402;51.374;6.594;2023-05-07T03:31:17;7.90;;;6.13;;
22470;SDS011;11402;51.374;6.594;2023-05-07T03:33:56;6.65;;;6.05;;
22470;SDS011;11402;51.374;6.594;2023-05-07T03:36:22;8.18;;;6.22;;
22470;SDS011;11402;51.374;6.594;2023-05-07T03:38:48;8.98;;;6.45;;
22470;SDS011;11402;51.374;6.594;2023-05-07T03:41:15;8.60;;;6.15;;
22470;SDS011;11402;51.374;6.594;2023-05-07T03:43:40;10.38;;;6.25;;
22470;SDS011;11402;51.374;6.594;2023-05-07T03:46:06;7.47;;;6.15;;
22470;SDS011;11402;51.374;6.594;2023-05-07T03:48:32;7.78;;;5.90;;
22470;SDS011;11402;51.374;6.594;2023-05-07T03:50:58;10.32;;;5.70;;
22470;SDS011;11402;51.374;6.594;2023-05-07T03:53:24;6.90;;;5.88;;
22470;SDS011;11402;51.374;6.594;2023-05-07T03:55:49;7.10;;;5.55;;
22470;SDS011;11402;51.374;6.594;2023-05-07T03:58:15;8.55;;;5.93;;
22470;SDS011;11402;51.374;6.594;2023-05-07T04:00:41;8.32;;;5.93;;
22470;SDS011;11402;51.374;6.594;2023-05-07T04:03:06;11.18;;;6.35;;
22470;SDS011;11402;51.374;6.594;2023-05-07T04:05:32;7.57;;;5.90;;
22470;SDS011;11402;51.374;6.594;2023-05-07T04:07:58;9.25;;;6.28;;
22470;SDS011;11402;51.374;6.594;2023-05-07T04:10:24;8.07;;;6.10;;
22470;SDS011;11402;51.374;6.594;2023-05-07T04:12:50;11.18;;;5.75;;
22470;SDS011;11402;51.374;6.594;2023-05-07T04:15:15;11.30;;;6.13;;
22470;SDS011;11402;51.374;6.594;2023-05-07T04:17:41;7.18;;;5.60;;
22470;SDS011;11402;51.374;6.594;2023-05-07T04:20:10;7.72;;;5.82;;
22470;SDS011;11402;51.374;6.594;2023-05-07T04:22:39;9.23;;;5.97;;
22470;SDS011;11402;51.374;6.594;2023-05-07T04:25:05;6.88;;;5.38;;
22470;SDS011;11402;51.374;6.594;2023-05-07T04:27:32;8.68;;;6.05;;
22470;SDS011;11402;51.374;6.594;2023-05-07T04:29:58;7.40;;;5.82;;
22470;SDS011;11402;51.374;6.594;2023-05-07T04:32:25;10.32;;;6.18;;
22470;SDS011;11402;51.374;6.594;2023-05-07T04:34:51;8.43;;;6.10;;
22470;SDS011;11402;51.374;6.594;2023-05-07T04:37:17;8.02;;;6.45;;
22470;SDS011;11402;51.374;6.594;2023-05-07T04:39:42;7.22;;;6.07;;
22470;SDS011;11402;51.374;6.594;2023-05-07T04:42:08;8.02;;;6.25;;
22470;SDS011;11402;51.374;6.594;2023-05-07T04:44:33;9.93;;;5.60;;
22470;SDS011;11402;51.374;6.594;2023-05-07T04:47:00;8.20;;;6.20;;
22470;SDS011;11402;51.374;6.594;2023-05-07T04:49:25;9.25;;;5.65;;
22470;SDS011;11402;51.374;6.594;2023-05-07T04:51:51;6.65;;;5.65;;
22470;SDS011;11402;51.374;6.594;2023-05-07T04:54:17;9.73;;;6.75;;
22470;SDS011;11402;51.374;6.594;2023-05-07T04:56:42;7.60;;;6.10;;
22470;SDS011;11402;51.374;6.594;2023-05-07T04:59:08;7.32;;;6.07;;
22470;SDS011;11402;51.374;6.594;2023-05-07T05:01:33;6.00;;;5.47;;
22470;SDS011;11402;51.374;6.594;2023-05-07T05:03:59;7.60;;;5.88;;
22470;SDS011;11402;51.374;6.594;2023-05-07T05:06:25;8.73;;;6.22;;
22470;SDS011;11402;51.374;6.594;2023-05-07T05:08:51;11.13;;;6.18;;
22470;SDS011;11402;51.374;6.594;2023-05-07T05:11:16;7.40;;;5.53;;
22470;SDS011;11402;51.374;6.594;2023-05-07T05:13:42;8.73;;;5.53;;
22470;SDS011;11402;51.374;6.594;2023-05-07T05:16:07;8.43;;;5.18;;
22470;SDS011;11402;51.374;6.594;2023-05-07T05:18:33;5.95;;;5.30;;
22470;SDS011;11402;51.374;6.594;2023-05-07T05:20:58;6.93;;;4.78;;
22470;SDS011;11402;51.374;6.594;2023-05-07T05:23:24;5.28;;;4.78;;
22470;SDS011;11402;51.374;6.594;2023-05-07T05:25:49;9.60;;;5.15;;
22470;SDS011;11402;51.374;6.594;2023-05-07T05:28:20;8.65;;;5.35;;
22470;SDS011;11402;51.374;6.594;2023-05-07T05:30:45;5.70;;;4.65;;
22470;SDS011;11402;51.374;6.594;2023-05-07T05:33:11;7.65;;;4.18;;
22470;SDS011;11402;51.374;6.594;2023-05-07T05:35:36;6.30;;;4.40;;
22470;SDS011;11402;51.374;6.594;2023-05-07T05:38:02;7.05;;;3.92;;
22470;SDS011;11402;51.374;6.594;2023-05-07T05:40:27;6.25;;;4.55;;
22470;SDS011;11402;51.374;6.594;2023-05-07T05:42:53;7.88;;;3.90;;
22470;SDS011;11402;51.374;6.594;2023-05-07T05:45:19;8.45;;;3.70;;
22470;SDS011;11402;51.374;6.594;2023-05-07T05:47:45;7.85;;;3.90;;
22470;SDS011;11402;51.374;6.594;2023-05-07T05:50:10;4.47;;;3.33;;
22470;SDS011;11402;51.374;6.594;2023-05-07T05:52:36;5.07;;;3.55;;
22470;SDS011;11402;51.374;6.594;2023-05-07T05:55:01;7.43;;;3.10;;
22470;SDS011;11402;51.374;6.594;2023-05-07T05:57:27;4.55;;;3.22;;
22470;SDS011;11402;51.374;6.594;2023-05-07T05:59:53;6.15;;;3.00;;
22470;SDS011;11402;51.374;6.594;2023-05-07T06:02:19;7.38;;;3.15;;
22470;SDS011;11402;51.374;6.594;2023-05-07T06:04:44;3.17;;;2.80;;
22470;SDS011;11402;51.374;6.594;2023-05-07T06:07:10;4.55;;;2.90;;
22470;SDS011;11402;51.374;6.594;2023-05-07T06:09:36;4.30;;;2.88;;
22470;SDS011;11402;51.374;6.594;2023-05-07T06:12:02;4.22;;;2.70;;
22470;SDS011;11402;51.374;6.594;2023-05-07T06:14:27;2.88;;;2.33;;
22470;SDS011;11402;51.374;6.594;2023-05-07T06:16:53;6.28;;;2.60;;
22470;SDS011;11402;51.374;6.594;2023-05-07T06:19:18;8.07;;;2.95;;
22470;SDS011;11402;51.374;6.594;2023-05-07T06:21:48;4.13;;;2.70;;
22470;SDS011;11402;51.374;6.594;2023-05-07T06:24:13;6.05;;;2.38;;
22470;SDS011;11402;51.374;6.594;2023-05-07T06:26:39;4.88;;;2.30;;
22470;SDS011;11402;51.374;6.594;2023-05-07T06:29:05;3.08;;;2.40;;
22470;SDS011;11402;51.374;6.594;2023-05-07T06:31:31;5.03;;;3.00;;
22470;SDS011;11402;51.374;6.594;2023-05-07T06:33:57;6.30;;;2.78;;
22470;SDS011;11402;51.374;6.594;2023-05-07T06:36:23;3.42;;;2.40;;
22470;SDS011;11402;51.374;6.594;2023-05-07T06:38:49;5.90;;;2.28;;
22470;SDS011;11402;51.374;6.594;2023-05-07T06:41:14;5.10;;;2.38;;
22470;SDS011;11402;51.374;6.594;2023-05-07T06:43:40;3.45;;;2.28;;
22470;SDS011;11402;51.374;6.594;2023-05-07T06:46:06;4.28;;;2.00;;
22470;SDS011;11402;51.374;6.594;2023-05-07T06:48:31;2.85;;;2.47;;
22470;SDS011;11402;51.374;6.594;2023-05-07T06:50:57;3.72;;;2.15;;
22470;SDS011;11402;51.374;6.594;2023-05-07T06:53:23;3.03;;;2.10;;
22470;SDS011;11402;51.374;6.594;2023-05-07T06:55:49;6.15;;;2.28;;
22470;SDS011;11402;51.374;6.594;2023-05-07T06:58:14;4.07;;;2.20;;
22470;SDS011;11402;51.374;6.594;2023-05-07T07:00:40;3.95;;;2.30;;
22470;SDS011;11402;51.374;6.594;2023-05-07T07:03:06;3.00;;;2.28;;
22470;SDS011;11402;51.374;6.594;2023-05-07T07:05:32;4.28;;;2.42;;
22470;SDS011;11402;51.374;6.594;2023-05-07T07:07:57;5.68;;;2.42;;
22470;SDS011;11402;51.374;6.594;2023-05-07T07:10:23;5.15;;;2.20;;
22470;SDS011;11402;51.374;6.594;2023-05-07T07:12:49;4.72;;;2.08;;
22470;SDS011;11402;51.374;6.594;2023-05-07T07:15:15;4.90;;;2.45;;
22470;SDS011;11402;51.374;6.594;2023-05-07T07:17:41;5.22;;;3.90;;
22470;SDS011;11402;51.374;6.594;2023-05-07T07:20:07;2.50;;;2.05;;
22470;SDS011;11402;51.374;6.594;2023-05-07T07:22:33;4.38;;;2.42;;
22470;SDS011;11402;51.374;6.594;2023-05-07T07:24:59;3.30;;;2.20;;
22470;SDS011;11402;51.374;6.594;2023-05-07T07:27:25;6.32;;;2.47;;
22470;SDS011;11402;51.374;6.594;2023-05-07T07:29:50;4.35;;;2.42;;
22470;SDS011;11402;51.374;6.594;2023-05-07T07:32:16;6.72;;;2.63;;
22470;SDS011;11402;51.374;6.594;2023-05-07T07:34:42;4.00;;;2.45;;
22470;SDS011;11402;51.374;6.594;2023-05-07T07:37:07;5.93;;;2.42;;
22470;SDS011;11402;51.374;6.594;2023-05-07T07:39:33;5.80;;;2.70;;
22470;SDS011;11402;51.374;6.594;2023-05-07T07:41:58;3.08;;;2.50;;
22470;SDS011;11402;51.374;6.594;2023-05-07T07:44:24;3.30;;;2.60;;
22470;SDS011;11402;51.374;6.594;2023-05-07T07:46:50;3.15;;;2.50;;
22470;SDS011;11402;51.374;6.594;2023-05-07T07:49:16;3.20;;;2.70;;
22470;SDS011;11402;51.374;6.594;2023-05-07T07:51:42;3.80;;;2.50;;
22470;SDS011;11402;51.374;6.594;2023-05-07T07:54:07;3.85;;;2.50;;
22470;SDS011;11402;51.374;6.594;2023-05-07T07:56:33;4.03;;;2.55;;
22470;SDS011;11402;51.374;6.594;2023-05-07T07:58:59;6.88;;;2.95;;
22470;SDS011;11402;51.374;6.594;2023-05-07T08:01:25;3.80;;;2.70;;
22470;SDS011;11402;51.374;6.594;2023-05-07T08:03:51;3.60;;;2.25;;
22470;SDS011;11402;51.374;6.594;2023-05-07T08:06:16;5.70;;;2.80;;
22470;SDS011;11402;51.374;6.594;2023-05-07T08:08:42;3.33;;;2.65;;
22470;SDS011;11402;51.374;6.594;2023-05-07T08:11:08;4.82;;;3.00;;
22470;SDS011;11402;51.374;6.594;2023-05-07T08:13:34;5.30;;;2.40;;
22470;SDS011;11402;51.374;6.594;2023-05-07T08:16:00;5.15;;;2.78;;
22470;SDS011;11402;51.374;6.594;2023-05-07T08:18:26;3.97;;;2.80;;
22470;SDS011;11402;51.374;6.594;2023-05-07T08:20:53;5.43;;;2.70;;
22470;SDS011;11402;51.374;6.594;2023-05-07T08:23:19;4.95;;;2.90;;
22470;SDS011;11402;51.374;6.594;2023-05-07T08:25:45;4.15;;;2.95;;
22470;SDS011;11402;51.374;6.594;2023-05-07T08:28:11;4.20;;;2.80;;
22470;SDS011;11402;51.374;6.594;2023-05-07T08:30:36;3.33;;;2.33;;
22470;SDS011;11402;51.374;6.594;2023-05-07T08:33:02;3.78;;;2.72;;
22470;SDS011;11402;51.374;6.594;2023-05-07T08:35:28;3.78;;;2.25;;
22470;SDS011;11402;51.374;6.594;2023-05-07T08:37:53;4.35;;;2.40;;
22470;SDS011;11402;51.374;6.594;2023-05-07T08:40:20;4.47;;;2.53;;
22470;SDS011;11402;51.374;6.594;2023-05-07T08:42:49;5.20;;;2.63;;
22470;SDS011;11402;51.374;6.594;2023-05-07T08:45:17;3.70;;;2.83;;
22470;SDS011;11402;51.374;6.594;2023-05-07T08:47:50;6.68;;;2.97;;
22470;SDS011;11402;51.374;6.594;2023-05-07T08:50:20;6.03;;;3.75;;
22470;SDS011;11402;51.374;6.594;2023-05-07T08:52:46;8.73;;;2.80;;
22470;SDS011;11402;51.374;6.594;2023-05-07T08:55:14;7.32;;;4.55;;
22470;SDS011;11402;51.374;6.594;2023-05-07T08:57:40;3.42;;;2.38;;
22470;SDS011;11402;51.374;6.594;2023-05-07T09:00:06;4.15;;;2.65;;
22470;SDS011;11402;51.374;6.594;2023-05-07T09:02:32;5.00;;;2.28;;
22470;SDS011;11402;51.374;6.594;2023-05-07T09:04:59;8.20;;;2.47;;
22470;SDS011;11402;51.374;6.594;2023-05-07T09:07:25;4.75;;;2.90;;
22470;SDS011;11402;51.374;6.594;2023-05-07T09:09:51;5.07;;;2.95;;
22470;SDS011;11402;51.374;6.594;2023-05-07T09:12:17;5.35;;;2.85;;
22470;SDS011;11402;51.374;6.594;2023-05-07T09:14:43;5.47;;;2.67;;
22470;SDS011;11402;51.374;6.594;2023-05-07T09:17:10;4.10;;;2.63;;
22470;SDS011;11402;51.374;6.594;2023-05-07T09:19:36;7.57;;;2.95;;
22470;SDS011;11402;51.374;6.594;2023-05-07T09:22:02;7.13;;;2.58;;
22470;SDS011;11402;51.374;6.594;2023-05-07T09:24:29;4.63;;;2.90;;
22470;SDS011;11402;51.374;6.594;2023-05-07T09:26:58;3.97;;;2.50;;
22470;SDS011;11402;51.374;6.594;2023-05-07T09:29:26;6.03;;;3.20;;
22470;SDS011;11402;51.374;6.594;2023-05-07T09:31:53;6.97;;;3.00;;
22470;SDS011;11402;51.374;6.594;2023-05-07T09:34:19;6.38;;;2.60;;
22470;SDS011;11402;51.374;6.594;2023-05-07T09:36:45;8.05;;;2.72;;
22470;SDS011;11402;51.374;6.594;2023-05-07T09:39:11;4.00;;;2.22;;
22470;SDS011;11402;51.374;6.594;2023-05-07T09:41:44;3.33;;;2.10;;
22470;SDS011;11402;51.374;6.594;2023-05-07T09:44:14;4.97;;;2.95;;
22470;SDS011;11402;51.374;6.594;2023-05-07T09:46:42;8.00;;;3.30;;
22470;SDS011;11402;51.374;6.594;2023-05-07T09:49:12;6.22;;;2.92;;
22470;SDS011;11402;51.374;6.594;2023-05-07T09:51:47;5.78;;;2.85;;
22470;SDS011;11402;51.374;6.594;2023-05-07T09:54:14;4.82;;;2.50;;
22470;SDS011;11402;51.374;6.594;2023-05-07T09:56:42;3.05;;;2.13;;
22470;SDS011;11402;51.374;6.594;2023-05-07T09:59:13;5.00;;;2.40;;
22470;SDS011;11402;51.374;6.594;2023-05-07T10:01:40;6.32;;;3.38;;
22470;SDS011;11402;51.374;6.594;2023-05-07T10:04:07;6.72;;;3.65;;
22470;SDS011;11402;51.374;6.594;2023-05-07T10:06:34;9.00;;;3.90;;
22470;SDS011;11402;51.374;6.594;2023-05-07T10:09:00;6.05;;;2.22;;
22470;SDS011;11402;51.374;6.594;2023-05-07T10:11:27;7.00;;;4.53;;
22470;SDS011;11402;51.374;6.594;2023-05-07T10:13:53;5.00;;;2.05;;
22470;SDS011;11402;51.374;6.594;2023-05-07T10:16:19;4.03;;;2.45;;
22470;SDS011;11402;51.374;6.594;2023-05-07T10:18:45;8.98;;;4.00;;
22470;SDS011;11402;51.374;6.594;2023-05-07T10:21:18;6.22;;;1.58;;
22470;SDS011;11402;51.374;6.594;2023-05-07T10:23:45;2.83;;;1.42;;
22470;SDS011;11402;51.374;6.594;2023-05-07T10:26:14;3.67;;;1.63;;
22470;SDS011;11402;51.374;6.594;2023-05-07T10:28:43;2.83;;;1.75;;
22470;SDS011;11402;51.374;6.594;2023-05-07T10:34:12;3.35;;;1.27;;
22470;SDS011;11402;51.374;6.594;2023-05-07T10:36:41;4.28;;;1.50;;
22470;SDS011;11402;51.374;6.594;2023-05-07T10:39:08;7.05;;;3.75;;
22470;SDS011;11402;51.374;6.594;2023-05-07T10:41:34;3.25;;;1.30;;
22470;SDS011;11402;51.374;6.594;2023-05-07T10:44:00;1.48;;;1.13;;
22470;SDS011;11402;51.374;6.594;2023-05-07T10:46:27;3.60;;;1.90;;
22470;SDS011;11402;51.374;6.594;2023-05-07T10:51:33;3.00;;;1.60;;
22470;SDS011;11402;51.374;6.594;2023-05-07T10:56:34;1.63;;;1.00;;
22470;SDS011;11402;51.374;6.594;2023-05-07T11:04:19;4.60;;;1.20;;
22470;SDS011;11402;51.374;6.594;2023-05-07T11:09:53;3.85;;;1.15;;
22470;SDS011;11402;51.374;6.594;2023-05-07T11:15:04;2.00;;;1.15;;
22470;SDS011;11402;51.374;6.594;2023-05-07T11:17:33;3.45;;;1.08;;
22470;SDS011;11402;51.374;6.594;2023-05-07T11:20:16;3.80;;;1.00;;
22470;SDS011;11402;51.374;6.594;2023-05-07T11:22:42;3.35;;;1.08;;
22470;SDS011;11402;51.374;6.594;2023-05-07T11:25:07;4.25;;;1.20;;
22470;SDS011;11402;51.374;6.594;2023-05-07T11:27:33;4.50;;;1.42;;
22470;SDS011;11402;51.374;6.594;2023-05-07T11:29:59;2.67;;;1.33;;
22470;SDS011;11402;51.374;6.594;2023-05-07T11:32:29;4.60;;;1.10;;
22470;SDS011;11402;51.374;6.594;2023-05-07T11:34:57;3.92;;;1.50;;
22470;SDS011;11402;51.374;6.594;2023-05-07T11:38:04;3.13;;;1.15;;
22470;SDS011;11402;51.374;6.594;2023-05-07T11:40:30;4.90;;;1.38;;
22470;SDS011;11402;51.374;6.594;2023-05-07T11:42:55;2.45;;;1.20;;
22470;SDS011;11402;51.374;6.594;2023-05-07T11:45:24;2.65;;;0.95;;
22470;SDS011;11402;51.374;6.594;2023-05-07T11:47:52;2.95;;;1.30;;
22470;SDS011;11402;51.374;6.594;2023-05-07T11:50:18;2.65;;;1.10;;
22470;SDS011;11402;51.374;6.594;2023-05-07T11:52:50;3.25;;;1.60;;
22470;SDS011;11402;51.374;6.594;2023-05-07T11:55:17;3.57;;;1.33;;
22470;SDS011;11402;51.374;6.594;2023-05-07T11:57:44;2.40;;;1.20;;
22470;SDS011;11402;51.374;6.594;2023-05-07T12:00:10;6.95;;;1.35;;
22470;SDS011;11402;51.374;6.594;2023-05-07T12:02:36;2.28;;;1.20;;
22470;SDS011;11402;51.374;6.594;2023-05-07T12:05:01;3.78;;;1.48;;
22470;SDS011;11402;51.374;6.594;2023-05-07T12:07:27;3.35;;;1.30;;
22470;SDS011;11402;51.374;6.594;2023-05-07T12:09:53;3.00;;;1.50;;
22470;SDS011;11402;51.374;6.594;2023-05-07T12:12:19;2.83;;;1.40;;
22470;SDS011;11402;51.374;6.594;2023-05-07T12:14:45;2.95;;;1.50;;
22470;SDS011;11402;51.374;6.594;2023-05-07T12:17:11;3.78;;;1.80;;
22470;SDS011;11402;51.374;6.594;2023-05-07T12:19:38;6.00;;;1.70;;
22470;SDS011;11402;51.374;6.594;2023-05-07T12:22:09;5.88;;;1.90;;
22470;SDS011;11402;51.374;6.594;2023-05-07T12:24:48;3.78;;;1.88;;
22470;SDS011;11402;51.374;6.594;2023-05-07T12:27:21;4.97;;;1.80;;
22470;SDS011;11402;51.374;6.594;2023-05-07T12:29:47;6.30;;;2.65;;
22470;SDS011;11402;51.374;6.594;2023-05-07T12:32:15;4.15;;;2.08;;
22470;SDS011;11402;51.374;6.594;2023-05-07T12:34:42;4.30;;;1.30;;
22470;SDS011;11402;51.374;6.594;2023-05-07T12:37:12;4.93;;;1.70;;
22470;SDS011;11402;51.374;6.594;2023-05-07T12:39:38;3.53;;;1.58;;
22470;SDS011;11402;51.374;6.594;2023-05-07T12:42:09;4.45;;;1.73;;
22470;SDS011;11402;51.374;6.594;2023-05-07T12:44:41;4.53;;;1.90;;
22470;SDS011;11402;51.374;6.594;2023-05-07T12:47:06;5.35;;;2.10;;
22470;SDS011;11402;51.374;6.594;2023-05-07T12:49:34;5.50;;;2.35;;
22470;SDS011;11402;51.374;6.594;2023-05-07T12:52:02;4.68;;;2.42;;
22470;SDS011;11402;51.374;6.594;2023-05-07T12:54:29;3.60;;;2.17;;
22470;SDS011;11402;51.374;6.594;2023-05-07T12:57:02;3.63;;;2.15;;
22470;SDS011;11402;51.374;6.594;2023-05-07T12:59:38;4.55;;;2.30;;
22470;SDS011;11402;51.374;6.594;2023-05-07T13:02:05;3.40;;;2.15;;
22470;SDS011;11402;51.374;6.594;2023-05-07T13:04:31;4.20;;;2.22;;
22470;SDS011;11402;51.374;6.594;2023-05-07T13:06:58;4.85;;;2.50;;
22470;SDS011;11402;51.374;6.594;2023-05-07T13:09:24;5.43;;;2.40;;
22470;SDS011;11402;51.374;6.594;2023-05-07T13:11:50;4.30;;;2.20;;
22470;SDS011;11402;51.374;6.594;2023-05-07T13:14:15;5.20;;;2.35;;
22470;SDS011;11402;51.374;6.594;2023-05-07T13:16:41;5.82;;;2.70;;
22470;SDS011;11402;51.374;6.594;2023-05-07T13:19:07;4.90;;;2.72;;
22470;SDS011;11402;51.374;6.594;2023-05-07T13:21:33;4.03;;;2.50;;
22470;SDS011;11402;51.374;6.594;2023-05-07T13:23:58;7.25;;;2.72;;
22470;SDS011;11402;51.374;6.594;2023-05-07T13:26:24;5.10;;;2.17;;
22470;SDS011;11402;51.374;6.594;2023-05-07T13:28:51;5.53;;;2.70;;
22470;SDS011;11402;51.374;6.594;2023-05-07T13:31:20;6.40;;;2.70;;
22470;SDS011;11402;51.374;6.594;2023-05-07T13:33:46;6.32;;;2.88;;
22470;SDS011;11402;51.374;6.594;2023-05-07T13:36:11;4.15;;;2.67;;
22470;SDS011;11402;51.374;6.594;2023-05-07T13:38:37;5.50;;;2.75;;
22470;SDS011;11402;51.374;6.594;2023-05-07T13:41:03;5.63;;;3.00;;
22470;SDS011;11402;51.374;6.594;2023-05-07T13:43:29;5.35;;;2.65;;
22470;SDS011;11402;51.374;6.594;2023-05-07T13:45:56;6.03;;;2.70;;
22470;SDS011;11402;51.374;6.594;2023-05-07T13:48:22;5.68;;;2.47;;
22470;SDS011;11402;51.374;6.594;2023-05-07T13:50:47;6.07;;;2.45;;
22470;SDS011;11402;51.374;6.594;2023-05-07T13:53:13;3.17;;;2.30;;
22470;SDS011;11402;51.374;6.594;2023-05-07T13:55:40;2.72;;;2.10;;
22470;SDS011;11402;51.374;6.594;2023-05-07T13:58:06;5.18;;;2.40;;
22470;SDS011;11402;51.374;6.594;2023-05-07T14:00:31;5.60;;;2.40;;
22470;SDS011;11402;51.374;6.594;2023-05-07T14:02:57;3.83;;;2.45;;
22470;SDS011;11402;51.374;6.594;2023-05-07T14:05:23;5.78;;;2.20;;
22470;SDS011;11402;51.374;6.594;2023-05-07T14:07:52;3.85;;;2.47;;
22470;SDS011;11402;51.374;6.594;2023-05-07T14:10:18;6.13;;;3.00;;
22470;SDS011;11402;51.374;6.594;2023-05-07T14:12:44;3.83;;;2.90;;
22470;SDS011;11402;51.374;6.594;2023-05-07T14:15:10;4.47;;;2.90;;
22470;SDS011;11402;51.374;6.594;2023-05-07T14:17:36;4.55;;;3.17;;
22470;SDS011;11402;51.374;6.594;2023-05-07T14:20:01;6.28;;;3.17;;
22470;SDS011;11402;51.374;6.594;2023-05-07T14:22:27;4.22;;;3.20;;
22470;SDS011;11402;51.374;6.594;2023-05-07T14:24:53;6.25;;;3.72;;
22470;SDS011;11402;51.374;6.594;2023-05-07T14:27:18;5.97;;;4.30;;
22470;SDS011;11402;51.374;6.594;2023-05-07T14:29:44;4.90;;;3.85;;
22470;SDS011;11402;51.374;6.594;2023-05-07T14:32:10;5.80;;;4.40;;
22470;SDS011;11402;51.374;6.594;2023-05-07T14:34:36;6.88;;;4.65;;
22470;SDS011;11402;51.374;6.594;2023-05-07T14:37:01;7.32;;;4.28;;
22470;SDS011;11402;51.374;6.594;2023-05-07T14:39:27;6.72;;;4.30;;
22470;SDS011;11402;51.374;6.594;2023-05-07T14:41:53;6.90;;;4.40;;
22470;SDS011;11402;51.374;6.594;2023-05-07T14:44:20;6.35;;;4.88;;
22470;SDS011;11402;51.374;6.594;2023-05-07T14:46:46;8.65;;;5.15;;
22470;SDS011;11402;51.374;6.594;2023-05-07T14:49:13;6.55;;;4.72;;
22470;SDS011;11402;51.374;6.594;2023-05-07T14:51:42;7.07;;;5.38;;
22470;SDS011;11402;51.374;6.594;2023-05-07T14:54:09;7.78;;;5.82;;
22470;SDS011;11402;51.374;6.594;2023-05-07T14:56:35;7.93;;;6.28;;
22470;SDS011;11402;51.374;6.594;2023-05-07T14:59:01;41.90;;;32.75;;
22470;SDS011;11402;51.374;6.594;2023-05-07T15:01:28;7.35;;;6.60;;
22470;SDS011;11402;51.374;6.594;2023-05-07T15:03:53;7.43;;;6.35;;